createdAt,value
2023-06-18T00:02:09.626Z,101024.94
2023-06-18T00:04:36.556Z,101032.19
2023-06-18T00:07:03.565Z,101046.19
2023-06-18T00:09:30.442Z,101025.59
2023-06-18T00:11:57.257Z,101033.66
2023-06-18T00:14:24.196Z,101047.34
2023-06-18T00:16:52.256Z,101056.13
2023-06-18T00:19:19.083Z,101039.63
2023-06-18T00:21:46.219Z,101047.34
2023-06-18T00:24:13.070Z,101038.75
2023-06-18T00:26:39.893Z,101039.91
2023-06-18T00:29:06.808Z,101034.94
2023-06-18T00:31:33.952Z,101025.81
2023-06-18T00:34:08.355Z,101037.16
2023-06-18T00:36:40.072Z,101028.22
2023-06-18T00:39:08.223Z,101031.50
2023-06-18T00:41:35.266Z,101026.50
2023-06-18T00:44:02.151Z,101035.41
2023-06-18T00:46:32.160Z,101025.13
2023-06-18T00:48:59.069Z,101039.63
2023-06-18T00:51:27.802Z,101019.16
2023-06-18T00:53:55.489Z,101023.47
2023-06-18T00:56:23.346Z,101038.94
2023-06-18T00:58:50.143Z,101009.84
2023-06-18T01:01:17.041Z,101027.84
2023-06-18T01:03:49.066Z,101033.09
2023-06-18T01:06:18.512Z,101027.50
2023-06-18T01:08:50.130Z,101022.84
2023-06-18T01:11:19.861Z,101022.13
2023-06-18T01:13:46.889Z,101043.72
2023-06-18T01:16:14.840Z,101052.09
2023-06-18T01:18:48.236Z,101055.84
2023-06-18T01:21:19.927Z,101042.97
2023-06-18T01:24:05.632Z,101064.69
2023-06-18T01:26:33.201Z,101058.31
2023-06-18T01:29:00.427Z,101057.66
2023-06-18T01:31:29.413Z,101057.78
2023-06-18T01:33:56.633Z,101053.38
2023-06-18T01:36:40.915Z,101072.69
2023-06-18T01:39:30.381Z,101077.25
2023-06-18T01:42:01.894Z,101060.22
2023-06-18T01:44:31.150Z,101055.63
2023-06-18T01:46:57.925Z,101056.63
2023-06-18T01:49:24.762Z,101073.75
2023-06-18T01:51:51.862Z,101063.06
2023-06-18T01:54:19.088Z,101065.38
2023-06-18T01:56:45.980Z,101067.72
2023-06-18T01:59:13.100Z,101065.38
2023-06-18T02:01:42.745Z,101083.03
2023-06-18T02:04:09.563Z,101078.25
2023-06-18T02:06:36.584Z,101080.91
2023-06-18T02:09:03.541Z,101089.66
2023-06-18T02:11:30.483Z,101077.38
2023-06-18T02:13:57.301Z,101079.19
2023-06-18T02:16:24.149Z,101078.22
2023-06-18T02:18:51.001Z,101081.00
2023-06-18T02:21:17.816Z,101037.22
2023-06-18T02:23:44.574Z,101076.00
2023-06-18T02:26:11.406Z,101068.41
2023-06-18T02:28:39.125Z,101075.31
2023-06-18T02:31:08.037Z,101087.13
2023-06-18T02:33:34.907Z,101074.03
2023-06-18T02:36:01.796Z,101079.16
2023-06-18T02:38:29.296Z,101073.38
2023-06-18T02:40:57.018Z,101070.59
2023-06-18T02:43:23.813Z,101064.13
2023-06-18T02:45:52.541Z,101069.66
2023-06-18T02:48:19.540Z,101084.03
2023-06-18T02:50:46.336Z,101069.25
2023-06-18T02:53:13.125Z,101079.75
2023-06-18T02:55:42.477Z,101088.81
2023-06-18T02:58:20.802Z,101070.16
2023-06-18T03:00:47.854Z,101060.88
2023-06-18T03:03:15.808Z,101072.19
2023-06-18T03:05:42.722Z,101059.03
2023-06-18T03:08:09.596Z,101054.25
2023-06-18T03:10:36.562Z,101059.44
2023-06-18T03:13:03.383Z,101067.41
2023-06-18T03:15:30.143Z,101064.13
2023-06-18T03:17:56.991Z,101075.03
2023-06-18T03:20:25.013Z,101085.78
2023-06-18T03:22:51.975Z,101096.00
2023-06-18T03:25:18.768Z,101084.94
2023-06-18T03:27:45.639Z,101096.03
2023-06-18T03:30:13.226Z,101096.53
2023-06-18T03:32:40.085Z,101081.97
2023-06-18T03:35:07.442Z,101094.75
2023-06-18T03:37:34.364Z,101086.88
2023-06-18T03:40:02.540Z,101070.47
2023-06-18T03:42:29.360Z,101070.22
2023-06-18T03:44:56.226Z,101089.59
2023-06-18T03:47:23.133Z,101069.41
2023-06-18T03:49:50.041Z,101068.16
2023-06-18T03:52:16.838Z,101082.13
2023-06-18T03:54:43.681Z,101073.66
2023-06-18T03:57:10.991Z,101074.56
2023-06-18T03:59:37.818Z,101084.75
2023-06-18T04:02:04.874Z,101098.84
2023-06-18T04:04:31.744Z,101085.75
2023-06-18T04:06:59.157Z,101097.44
2023-06-18T04:09:26.075Z,101105.00
2023-06-18T04:11:54.257Z,101090.72
2023-06-18T04:14:21.338Z,101097.59
2023-06-18T04:16:48.082Z,101081.16
2023-06-18T04:19:14.980Z,101092.81
2023-06-18T04:21:41.780Z,101087.53
2023-06-18T04:24:08.606Z,101097.59
2023-06-18T04:26:35.584Z,101094.38
2023-06-18T04:29:02.385Z,101109.84
2023-06-18T04:31:29.221Z,101092.75
2023-06-18T04:33:56.055Z,101097.94
2023-06-18T04:36:22.884Z,101091.84
2023-06-18T04:38:49.668Z,101104.88
2023-06-18T04:41:16.544Z,101102.09
2023-06-18T04:43:43.320Z,101093.97
2023-06-18T04:46:10.215Z,101106.38
2023-06-18T04:48:37.047Z,101106.84
2023-06-18T04:51:04.019Z,101100.19
2023-06-18T04:53:30.821Z,101121.78
2023-06-18T04:55:57.745Z,101118.09
2023-06-18T04:58:25.662Z,101119.34
2023-06-18T05:00:53.454Z,101115.28
2023-06-18T05:03:20.496Z,101121.84
2023-06-18T05:05:47.466Z,101106.88
2023-06-18T05:08:14.341Z,101111.63
2023-06-18T05:10:41.238Z,101126.19
2023-06-18T05:13:08.043Z,101122.75
2023-06-18T05:15:34.948Z,101123.59
2023-06-18T05:18:02.088Z,101118.28
2023-06-18T05:20:29.148Z,101117.25
2023-06-18T05:22:55.990Z,101124.81
2023-06-18T05:25:22.829Z,101106.13
2023-06-18T05:27:49.656Z,101130.34
2023-06-18T05:30:16.611Z,101128.50
2023-06-18T05:32:43.503Z,101124.19
2023-06-18T05:35:10.767Z,101135.13
2023-06-18T05:37:37.608Z,101136.66
2023-06-18T05:40:08.266Z,101132.72
2023-06-18T05:42:36.214Z,101126.00
2023-06-18T05:45:03.888Z,101131.84
2023-06-18T05:47:31.088Z,101145.53
2023-06-18T05:49:58.145Z,101135.81
2023-06-18T05:52:25.005Z,101137.34
2023-06-18T05:54:51.826Z,101132.81
2023-06-18T05:57:18.656Z,101145.88
2023-06-18T05:59:48.561Z,101149.75
2023-06-18T06:02:15.529Z,101150.53
2023-06-18T06:04:43.263Z,101132.19
2023-06-18T06:07:11.753Z,101149.72
2023-06-18T06:09:38.547Z,101143.38
2023-06-18T06:12:05.590Z,101134.56
2023-06-18T06:14:32.400Z,101146.59
2023-06-18T06:16:59.404Z,101134.63
2023-06-18T06:19:26.892Z,101139.75
2023-06-18T06:21:53.772Z,101133.84
2023-06-18T06:24:20.764Z,101150.22
2023-06-18T06:26:47.689Z,101151.50
2023-06-18T06:29:14.643Z,101171.13
2023-06-18T06:31:41.803Z,101164.25
2023-06-18T06:34:08.746Z,101166.03
2023-06-18T06:36:37.247Z,101159.84
2023-06-18T06:39:04.405Z,101156.13
2023-06-18T06:41:31.326Z,101173.66
2023-06-18T06:43:58.148Z,101165.91
2023-06-18T06:46:25.110Z,101170.44
2023-06-18T06:48:52.034Z,101164.22
2023-06-18T06:51:18.855Z,101176.72
2023-06-18T06:53:48.110Z,101169.13
2023-06-18T06:58:42.735Z,101179.09
2023-06-18T07:01:09.523Z,101181.88
2023-06-18T07:03:37.109Z,101176.94
2023-06-18T07:06:07.521Z,101179.69
2023-06-18T07:08:34.592Z,101173.06
2023-06-18T07:11:01.696Z,101158.25
2023-06-18T07:13:28.547Z,101172.59
2023-06-18T07:15:55.405Z,101172.88
2023-06-18T07:18:22.302Z,101177.06
2023-06-18T07:20:49.143Z,101160.53
2023-06-18T07:23:16.041Z,101181.69
2023-06-18T07:25:42.991Z,101179.06
2023-06-18T07:28:09.812Z,101185.53
2023-06-18T07:30:36.703Z,101176.19
2023-06-18T07:33:03.665Z,101162.13
2023-06-18T07:35:30.604Z,101154.16
2023-06-18T07:37:57.455Z,101163.00
2023-06-18T07:40:24.523Z,101163.13
2023-06-18T07:42:51.563Z,101169.13
2023-06-18T07:45:18.474Z,101176.44
2023-06-18T07:47:45.608Z,101162.03
2023-06-18T07:50:13.142Z,101169.03
2023-06-18T07:52:39.940Z,101181.50
2023-06-18T07:55:07.476Z,101181.09
2023-06-18T07:57:34.344Z,101190.00
2023-06-18T08:00:01.285Z,101194.25
2023-06-18T08:02:28.263Z,101173.81
2023-06-18T08:04:55.255Z,101180.06
2023-06-18T08:07:22.167Z,101192.88
2023-06-18T08:09:49.053Z,101185.22
2023-06-18T08:12:16.279Z,101190.03
2023-06-18T08:14:46.706Z,101188.63
2023-06-18T08:17:17.225Z,101180.09
2023-06-18T08:19:46.479Z,101187.34
2023-06-18T08:22:13.757Z,101195.19
2023-06-18T08:24:40.917Z,101196.75
2023-06-18T08:27:08.171Z,101185.41
2023-06-18T08:29:35.125Z,101172.03
2023-06-18T08:32:06.019Z,101170.47
2023-06-18T08:34:33.565Z,101172.50
2023-06-18T08:37:01.146Z,101174.41
2023-06-18T08:39:28.184Z,101173.47
2023-06-18T08:41:56.048Z,101188.81
2023-06-18T08:44:24.733Z,101186.91
2023-06-18T08:46:51.600Z,101184.72
2023-06-18T08:49:18.722Z,101178.31
2023-06-18T08:51:45.950Z,101186.97
2023-06-18T08:54:12.768Z,101194.06
2023-06-18T08:56:50.831Z,101186.31
2023-06-18T08:59:18.108Z,101199.91
2023-06-18T09:01:44.908Z,101197.44
2023-06-18T09:04:12.031Z,101195.78
2023-06-18T09:06:38.912Z,101206.47
2023-06-18T09:09:05.865Z,101196.53
2023-06-18T09:11:37.359Z,101192.09
2023-06-18T09:14:05.014Z,101192.75
2023-06-18T09:16:32.011Z,101198.84
2023-06-18T09:18:58.886Z,101195.31
2023-06-18T09:21:41.854Z,101210.25
2023-06-18T09:24:10.666Z,101197.41
2023-06-18T09:26:37.613Z,101191.78
2023-06-18T09:29:10.590Z,101208.44
2023-06-18T09:31:38.935Z,101203.78
2023-06-18T09:34:13.348Z,101199.22
2023-06-18T09:36:44.119Z,101197.28
2023-06-18T09:39:17.469Z,101195.00
2023-06-18T09:41:45.530Z,101178.28
2023-06-18T09:44:16.215Z,101175.72
2023-06-18T09:46:47.549Z,101172.72
2023-06-18T09:49:18.330Z,101177.94
2023-06-18T09:51:45.381Z,101187.75
2023-06-18T09:54:12.334Z,101191.69
2023-06-18T09:56:39.531Z,101191.22
2023-06-18T09:59:06.408Z,101174.22
2023-06-18T10:01:49.527Z,101190.44
2023-06-18T10:04:18.334Z,101187.00
2023-06-18T10:06:54.490Z,101180.69
2023-06-18T10:09:21.707Z,101197.88
2023-06-18T10:11:50.341Z,101187.56
2023-06-18T10:14:18.067Z,101196.06
2023-06-18T10:16:49.898Z,101188.47
2023-06-18T10:19:20.862Z,101186.69
2023-06-18T10:21:51.098Z,101182.78
2023-06-18T10:24:19.067Z,101177.47
2023-06-18T10:26:46.966Z,101186.91
2023-06-18T10:29:13.861Z,101182.13
2023-06-18T10:31:40.852Z,101200.31
2023-06-18T10:34:07.753Z,101188.72
2023-06-18T10:36:34.609Z,101188.56
2023-06-18T10:39:02.384Z,101200.03
2023-06-18T10:41:29.200Z,101186.25
2023-06-18T10:43:56.286Z,101181.13
2023-06-18T10:46:23.331Z,101186.31
2023-06-18T10:49:18.648Z,101178.72
2023-06-18T10:52:06.363Z,101179.63
2023-06-18T10:54:35.163Z,101180.66
2023-06-18T10:57:03.052Z,101174.38
2023-06-18T10:59:45.996Z,101173.94
2023-06-18T11:02:13.639Z,101164.53
2023-06-18T11:04:41.272Z,101155.69
2023-06-18T11:07:25.013Z,101151.91
2023-06-18T11:09:53.427Z,101150.44
2023-06-18T11:12:30.567Z,101154.16
2023-06-18T11:15:23.926Z,101149.44
2023-06-18T11:17:54.950Z,101140.19
2023-06-18T11:20:23.883Z,101136.50
2023-06-18T11:22:57.247Z,101144.69
2023-06-18T11:25:25.789Z,101136.06
2023-06-18T11:27:54.836Z,101121.31
2023-06-18T11:30:21.888Z,101137.59
2023-06-18T11:32:48.953Z,101138.25
2023-06-18T11:35:16.167Z,101144.03
2023-06-18T11:37:43.828Z,101149.75
2023-06-18T11:40:11.060Z,101141.72
2023-06-18T11:42:41.335Z,101142.53
2023-06-18T11:45:08.695Z,101135.53
2023-06-18T11:47:35.933Z,101124.19
2023-06-18T11:50:08.552Z,101132.22
2023-06-18T11:52:37.500Z,101116.38
2023-06-18T11:55:05.479Z,101124.38
2023-06-18T11:57:32.868Z,101106.06
2023-06-18T12:00:00.409Z,101111.78
2023-06-18T12:02:28.503Z,101102.16
2023-06-18T12:05:05.147Z,101104.19
2023-06-18T12:07:32.270Z,101102.63
2023-06-18T12:10:00.868Z,101087.00
2023-06-18T12:12:42.886Z,101108.31
2023-06-18T12:15:18.222Z,101103.13
2023-06-18T12:17:56.034Z,101095.03
2023-06-18T12:20:29.118Z,101106.00
2023-06-18T12:23:00.028Z,101109.97
2023-06-18T12:25:29.259Z,101093.91
2023-06-18T12:27:56.854Z,101088.09
2023-06-18T12:30:49.664Z,101097.25
2023-06-18T12:33:16.635Z,101089.88
2023-06-18T12:35:58.026Z,101080.09
2023-06-18T12:38:25.533Z,101097.03
2023-06-18T12:41:00.489Z,101103.69
2023-06-18T12:43:27.392Z,101104.56
2023-06-18T12:45:54.311Z,101085.72
2023-06-18T12:48:26.025Z,101099.31
2023-06-18T12:50:54.052Z,101086.28
2023-06-18T12:53:23.549Z,101102.06
2023-06-18T12:55:55.202Z,101064.00
2023-06-18T12:58:24.159Z,101077.94
2023-06-18T13:00:51.877Z,101087.75
2023-06-18T13:03:19.311Z,101069.00
2023-06-18T13:05:48.086Z,101078.34
2023-06-18T13:08:20.135Z,101064.75
2023-06-18T13:10:52.049Z,101070.44
2023-06-18T13:13:19.433Z,101067.53
2023-06-18T13:15:50.376Z,101065.41
2023-06-18T13:18:20.191Z,101085.22
2023-06-18T13:20:47.905Z,101077.16
2023-06-18T13:23:15.132Z,101062.88
2023-06-18T13:25:42.441Z,101086.06
2023-06-18T13:28:09.596Z,101097.44
2023-06-18T13:30:36.807Z,101080.81
2023-06-18T13:33:03.831Z,101087.47
2023-06-18T13:35:34.145Z,101056.00
2023-06-18T13:38:01.263Z,101073.97
2023-06-18T13:40:28.950Z,101093.03
2023-06-18T13:42:55.783Z,101094.66
2023-06-18T13:45:22.728Z,101072.19
2023-06-18T13:47:49.779Z,101089.66
2023-06-18T13:50:17.081Z,101127.50
2023-06-18T13:52:43.963Z,101087.22
2023-06-18T13:55:10.900Z,101124.25
2023-06-18T13:57:38.324Z,101112.81
2023-06-18T14:00:09.060Z,101116.13
2023-06-18T14:02:36.085Z,101092.28
2023-06-18T14:05:03.149Z,101143.75
2023-06-18T14:07:31.682Z,101132.09
2023-06-18T14:09:58.720Z,101142.06
2023-06-18T14:12:28.170Z,101155.59
2023-06-18T14:14:56.213Z,101135.94
2023-06-18T14:17:27.246Z,101149.81
2023-06-18T14:19:55.359Z,101128.63
2023-06-18T14:22:22.314Z,101138.06
2023-06-18T14:24:49.342Z,101146.59
2023-06-18T14:27:16.505Z,101111.25
2023-06-18T14:29:43.440Z,101140.19
2023-06-18T14:32:10.390Z,101121.41
2023-06-18T14:34:37.201Z,101138.47
2023-06-18T14:37:04.210Z,101146.41
2023-06-18T14:39:31.041Z,101145.34
2023-06-18T14:41:57.837Z,101115.44
2023-06-18T14:44:28.213Z,101154.47
2023-06-18T14:46:55.244Z,101158.38
2023-06-18T14:49:22.117Z,101136.78
2023-06-18T14:51:49.054Z,101136.94
2023-06-18T14:54:17.380Z,101156.19
2023-06-18T14:56:47.338Z,101150.16
2023-06-18T14:59:14.423Z,101134.47
2023-06-18T15:01:41.390Z,101166.75
2023-06-18T15:04:09.229Z,101157.63
2023-06-18T15:06:36.984Z,101145.06
2023-06-18T15:09:04.863Z,101166.28
2023-06-18T15:11:31.960Z,101160.00
2023-06-18T15:13:58.962Z,101153.00
2023-06-18T15:16:26.367Z,101132.72
2023-06-18T15:18:53.576Z,101146.63
2023-06-18T15:21:20.844Z,101155.25
2023-06-18T15:23:47.656Z,101160.59
2023-06-18T15:26:21.295Z,101142.41
2023-06-18T15:28:53.133Z,101155.16
2023-06-18T15:31:20.081Z,101145.00
2023-06-18T15:33:51.081Z,101179.59
2023-06-18T15:36:18.073Z,101152.56
2023-06-18T15:38:47.333Z,101161.66
2023-06-18T15:41:14.233Z,101141.38
2023-06-18T15:43:41.164Z,101163.47
2023-06-18T15:46:08.080Z,101145.78
2023-06-18T15:48:34.981Z,101162.81
2023-06-18T15:51:01.976Z,101172.75
2023-06-18T15:53:29.010Z,101152.97
2023-06-18T15:55:56.623Z,101140.38
2023-06-18T15:58:23.509Z,101153.69
2023-06-18T16:00:50.922Z,101177.09
2023-06-18T16:03:17.870Z,101172.91
2023-06-18T16:05:45.070Z,101178.47
2023-06-18T16:08:12.181Z,101179.72
2023-06-18T16:10:39.128Z,101193.66
2023-06-18T16:13:07.177Z,101176.44
2023-06-18T16:15:34.127Z,101181.75
2023-06-18T16:18:10.451Z,101183.56
2023-06-18T16:20:38.631Z,101181.81
2023-06-18T16:23:05.711Z,101190.50
2023-06-18T16:25:32.604Z,101173.78
2023-06-18T16:28:00.093Z,101182.41
2023-06-18T16:30:30.672Z,101208.59
2023-06-18T16:33:00.004Z,101192.34
2023-06-18T16:35:26.982Z,101182.44
2023-06-18T16:37:54.450Z,101180.28
2023-06-18T16:40:21.951Z,101179.16
2023-06-18T16:42:48.976Z,101164.13
2023-06-18T16:45:16.052Z,101185.53
2023-06-18T16:47:43.107Z,101208.19
2023-06-18T16:50:10.528Z,101185.06
2023-06-18T16:52:37.444Z,101177.25
2023-06-18T16:55:06.394Z,101205.34
2023-06-18T16:57:33.494Z,101190.41
2023-06-18T17:00:00.356Z,101196.81
2023-06-18T17:02:27.533Z,101193.38
2023-06-18T17:04:54.497Z,101206.47
2023-06-18T17:07:21.625Z,101196.25
2023-06-18T17:09:48.696Z,101214.50
2023-06-18T17:12:15.606Z,101182.69
2023-06-18T17:14:42.494Z,101187.59
2023-06-18T17:17:09.584Z,101217.78
2023-06-18T17:19:44.147Z,101190.47
2023-06-18T17:22:13.409Z,101168.31
2023-06-18T17:24:40.498Z,101194.97
2023-06-18T17:27:07.799Z,101197.88
2023-06-18T17:29:34.776Z,101174.25
2023-06-18T17:32:03.532Z,101183.50
2023-06-18T17:34:30.665Z,101185.13
2023-06-18T17:36:57.646Z,101183.31
2023-06-18T17:39:28.956Z,101214.84
2023-06-18T17:41:55.999Z,101199.88
2023-06-18T17:44:22.952Z,101208.66
2023-06-18T17:46:50.199Z,101239.00
2023-06-18T17:49:17.280Z,101222.38
2023-06-18T17:51:44.732Z,101233.22
2023-06-18T17:54:14.114Z,101229.41
2023-06-18T17:56:41.209Z,101205.75
2023-06-18T17:59:09.301Z,101244.16
2023-06-18T18:01:36.372Z,101234.44
2023-06-18T18:04:03.390Z,101208.97
2023-06-18T18:06:30.364Z,101214.25
2023-06-18T18:08:57.399Z,101208.44
2023-06-18T18:11:28.698Z,101216.19
2023-06-18T18:13:58.729Z,101204.97
2023-06-18T18:16:25.605Z,101219.91
2023-06-18T18:18:53.042Z,101193.94
2023-06-18T18:21:19.996Z,101201.53
2023-06-18T18:23:46.943Z,101234.66
2023-06-18T18:26:14.635Z,101211.75
2023-06-18T18:28:41.630Z,101198.34
2023-06-18T18:31:09.089Z,101223.78
2023-06-18T18:33:35.972Z,101218.59
2023-06-18T18:36:05.171Z,101233.38
2023-06-18T18:38:32.036Z,101231.50
2023-06-18T18:40:58.891Z,101248.06
2023-06-18T18:43:26.351Z,101224.88
2023-06-18T18:45:53.271Z,101245.56
2023-06-18T18:48:20.958Z,101235.91
2023-06-18T18:50:47.865Z,101230.16
2023-06-18T18:53:14.898Z,101255.81
2023-06-18T18:55:41.769Z,101250.16
2023-06-18T18:58:08.664Z,101251.91
2023-06-18T19:00:35.727Z,101267.09
2023-06-18T19:03:02.880Z,101250.75
2023-06-18T19:05:29.885Z,101270.63
2023-06-18T19:07:56.832Z,101253.59
2023-06-18T19:10:24.842Z,101271.81
2023-06-18T19:12:54.217Z,101260.50
2023-06-18T19:15:21.141Z,101277.84
2023-06-18T19:17:48.081Z,101260.69
2023-06-18T19:20:15.183Z,101284.66
2023-06-18T19:22:42.142Z,101274.22
2023-06-18T19:25:09.644Z,101305.78
2023-06-18T19:27:36.522Z,101296.47
2023-06-18T19:30:04.029Z,101272.28
2023-06-18T19:32:30.926Z,101285.44
2023-06-18T19:34:57.919Z,101284.63
2023-06-18T19:37:24.732Z,101270.31
2023-06-18T19:39:51.628Z,101283.03
2023-06-18T19:42:18.652Z,101284.41
2023-06-18T19:44:45.973Z,101269.19
2023-06-18T19:47:12.841Z,101299.59
2023-06-18T19:49:39.676Z,101272.22
2023-06-18T19:52:07.404Z,101283.97
2023-06-18T19:54:35.528Z,101305.66
2023-06-18T19:57:02.541Z,101284.44
2023-06-18T19:59:29.499Z,101298.34
2023-06-18T20:01:56.430Z,101264.88
2023-06-18T20:04:23.376Z,101263.94
2023-06-18T20:06:50.305Z,101294.97
2023-06-18T20:09:17.329Z,101272.41
2023-06-18T20:11:44.231Z,101269.94
2023-06-18T20:14:13.265Z,101271.41
2023-06-18T20:16:40.421Z,101280.56
2023-06-18T20:19:07.487Z,101268.38
2023-06-18T20:21:34.468Z,101283.09
2023-06-18T20:24:01.832Z,101274.19
2023-06-18T20:26:28.796Z,101273.72
2023-06-18T20:28:55.746Z,101287.44
2023-06-18T20:31:22.567Z,101262.84
2023-06-18T20:33:49.675Z,101270.63
2023-06-18T20:36:17.455Z,101255.78
2023-06-18T20:38:44.397Z,101273.78
2023-06-18T20:41:11.826Z,101263.25
2023-06-18T20:43:39.463Z,101265.38
2023-06-18T20:46:06.419Z,101266.06
2023-06-18T20:48:33.607Z,101267.06
2023-06-18T20:51:05.002Z,101254.22
2023-06-18T20:53:32.952Z,101273.84
2023-06-18T20:56:00.888Z,101306.84
2023-06-18T20:58:27.958Z,101275.97
2023-06-18T21:00:54.960Z,101252.34
2023-06-18T21:03:24.571Z,101265.91
2023-06-18T21:05:51.992Z,101273.00
2023-06-18T21:08:19.261Z,101293.84
2023-06-18T21:10:46.275Z,101282.44
2023-06-18T21:13:13.117Z,101289.50
2023-06-18T21:15:40.112Z,101299.38
2023-06-18T21:18:07.400Z,101282.72
2023-06-18T21:20:34.414Z,101294.63
2023-06-18T21:23:01.225Z,101283.06
2023-06-18T21:25:28.150Z,101268.03
2023-06-18T21:27:58.048Z,101286.84
2023-06-18T21:30:25.655Z,101273.84
2023-06-18T21:32:53.580Z,101297.94
2023-06-18T21:35:20.438Z,101282.25
2023-06-18T21:37:47.403Z,101296.31
2023-06-18T21:40:14.889Z,101287.06
2023-06-18T21:42:42.463Z,101264.13
2023-06-18T21:45:09.567Z,101295.63
2023-06-18T21:47:36.556Z,101288.75
2023-06-18T21:50:03.750Z,101292.38
2023-06-18T21:52:30.701Z,101307.25
2023-06-18T21:54:57.666Z,101283.97
2023-06-18T21:57:24.642Z,101288.41
2023-06-18T21:59:51.730Z,101283.78
2023-06-18T22:02:18.792Z,101281.16
2023-06-18T22:04:45.749Z,101291.88
2023-06-18T22:07:13.116Z,101280.66
2023-06-18T22:09:40.050Z,101295.63
2023-06-18T22:12:07.323Z,101299.94
2023-06-18T22:14:34.951Z,101305.69
2023-06-18T22:17:01.915Z,101273.34
2023-06-18T22:19:28.784Z,101276.81
2023-06-18T22:21:55.642Z,101272.53
2023-06-18T22:24:22.604Z,101274.38
2023-06-18T22:26:53.698Z,101291.50
2023-06-18T22:29:22.408Z,101276.97
2023-06-18T22:31:52.882Z,101253.56
2023-06-18T22:34:32.341Z,101270.22
2023-06-18T22:37:06.872Z,101279.47
2023-06-18T22:39:33.963Z,101291.38
2023-06-18T22:42:01.012Z,101248.78
2023-06-18T22:44:27.898Z,101272.72
2023-06-18T22:46:54.786Z,101267.13
2023-06-18T22:49:21.711Z,101267.50
2023-06-18T22:51:54.904Z,101231.00
2023-06-18T22:54:21.785Z,101267.66
2023-06-18T22:56:48.663Z,101277.91
2023-06-18T22:59:15.587Z,101278.09
2023-06-18T23:01:42.483Z,101252.16
2023-06-18T23:04:09.417Z,101254.00
2023-06-18T23:06:36.391Z,101267.22
2023-06-18T23:09:03.671Z,101253.13
2023-06-18T23:11:30.557Z,101266.19
2023-06-18T23:13:57.461Z,101259.06
2023-06-18T23:16:24.373Z,101263.00
2023-06-18T23:18:52.418Z,101250.94
2023-06-18T23:21:19.400Z,101278.00
2023-06-18T23:23:46.339Z,101266.78
2023-06-18T23:26:13.530Z,101235.19
2023-06-18T23:28:40.561Z,101247.09
2023-06-18T23:31:09.205Z,101244.94
2023-06-18T23:33:36.200Z,101243.72
2023-06-18T23:36:03.491Z,101251.00
2023-06-18T23:38:30.501Z,101269.47
2023-06-18T23:40:57.403Z,101231.94
2023-06-18T23:43:24.253Z,101257.88
2023-06-18T23:45:51.246Z,101235.56
2023-06-18T23:48:18.145Z,101239.72
2023-06-18T23:50:45.066Z,101250.56
2023-06-18T23:53:11.969Z,101255.16
2023-06-18T23:55:39.021Z,101250.69
2023-06-18T23:58:05.916Z,101262.75
